sensor_id;sensor_type;location;lat;lon;timestamp;P1;durP1;ratioP1;P2;durP2;ratioP2
57217;SDS011;43078;52.972;6.482;2023-03-14T00:01:47;26.00;;;4.78;;
57217;SDS011;43078;52.972;6.482;2023-03-14T00:04:16;26.73;;;5.05;;
57217;SDS011;43078;52.972;6.482;2023-03-14T00:06:42;31.05;;;5.28;;
57217;SDS011;43078;52.972;6.482;2023-03-14T00:09:08;26.45;;;4.95;;
57217;SDS011;43078;52.972;6.482;2023-03-14T00:11:36;24.50;;;4.72;;
57217;SDS011;43078;52.972;6.482;2023-03-14T00:14:20;24.25;;;4.30;;
57217;SDS011;43078;52.972;6.482;2023-03-14T00:16:49;25.83;;;4.25;;
57217;SDS011;43078;52.972;6.482;2023-03-14T00:19:14;25.75;;;4.47;;
57217;SDS011;43078;52.972;6.482;2023-03-14T00:21:43;22.30;;;4.22;;
57217;SDS011;43078;52.972;6.482;2023-03-14T00:24:09;25.75;;;4.45;;
57217;SDS011;43078;52.972;6.482;2023-03-14T00:26:55;24.73;;;4.57;;
57217;SDS011;43078;52.972;6.482;2023-03-14T00:29:21;28.42;;;4.82;;
57217;SDS011;43078;52.972;6.482;2023-03-14T00:31:50;22.52;;;4.10;;
57217;SDS011;43078;52.972;6.482;2023-03-14T00:34:18;25.88;;;4.85;;
57217;SDS011;43078;52.972;6.482;2023-03-14T00:36:45;23.17;;;4.50;;
57217;SDS011;43078;52.972;6.482;2023-03-14T00:39:21;29.17;;;4.90;;
57217;SDS011;43078;52.972;6.482;2023-03-14T00:41:48;27.98;;;4.60;;
57217;SDS011;43078;52.972;6.482;2023-03-14T00:44:16;25.25;;;4.85;;
57217;SDS011;43078;52.972;6.482;2023-03-14T00:46:44;29.00;;;4.65;;
57217;SDS011;43078;52.972;6.482;2023-03-14T00:49:10;27.98;;;4.82;;
57217;SDS011;43078;52.972;6.482;2023-03-14T00:51:42;27.48;;;5.15;;
57217;SDS011;43078;52.972;6.482;2023-03-14T00:54:32;24.88;;;4.55;;
57217;SDS011;43078;52.972;6.482;2023-03-14T00:57:03;27.13;;;4.80;;
57217;SDS011;43078;52.972;6.482;2023-03-14T00:59:58;22.75;;;3.85;;
57217;SDS011;43078;52.972;6.482;2023-03-14T01:02:24;21.30;;;3.95;;
57217;SDS011;43078;52.972;6.482;2023-03-14T01:04:53;23.85;;;4.20;;
57217;SDS011;43078;52.972;6.482;2023-03-14T01:07:22;23.70;;;4.72;;
57217;SDS011;43078;52.972;6.482;2023-03-14T01:10:09;23.65;;;4.45;;
57217;SDS011;43078;52.972;6.482;2023-03-14T01:12:35;25.92;;;4.38;;
57217;SDS011;43078;52.972;6.482;2023-03-14T01:15:01;22.42;;;4.47;;
57217;SDS011;43078;52.972;6.482;2023-03-14T01:17:27;23.02;;;4.57;;
57217;SDS011;43078;52.972;6.482;2023-03-14T01:19:52;24.23;;;3.75;;
57217;SDS011;43078;52.972;6.482;2023-03-14T01:22:18;20.48;;;3.80;;
57217;SDS011;43078;52.972;6.482;2023-03-14T01:24:46;29.70;;;4.20;;
57217;SDS011;43078;52.972;6.482;2023-03-14T01:27:12;21.63;;;4.07;;
57217;SDS011;43078;52.972;6.482;2023-03-14T01:29:37;23.30;;;3.92;;
57217;SDS011;43078;52.972;6.482;2023-03-14T01:32:03;19.02;;;4.00;;
57217;SDS011;43078;52.972;6.482;2023-03-14T01:34:29;18.58;;;3.50;;
57217;SDS011;43078;52.972;6.482;2023-03-14T01:36:55;24.60;;;3.50;;
57217;SDS011;43078;52.972;6.482;2023-03-14T01:39:20;18.33;;;3.15;;
57217;SDS011;43078;52.972;6.482;2023-03-14T01:41:46;19.05;;;3.40;;
57217;SDS011;43078;52.972;6.482;2023-03-14T01:44:12;16.83;;;3.30;;
57217;SDS011;43078;52.972;6.482;2023-03-14T01:46:39;18.60;;;3.38;;
57217;SDS011;43078;52.972;6.482;2023-03-14T01:49:19;18.33;;;3.20;;
57217;SDS011;43078;52.972;6.482;2023-03-14T01:51:56;16.83;;;3.28;;
57217;SDS011;43078;52.972;6.482;2023-03-14T01:54:39;16.90;;;3.47;;
57217;SDS011;43078;52.972;6.482;2023-03-14T01:57:12;18.98;;;3.08;;
57217;SDS011;43078;52.972;6.482;2023-03-14T01:59:43;17.63;;;2.95;;
57217;SDS011;43078;52.972;6.482;2023-03-14T02:02:23;17.45;;;3.33;;
57217;SDS011;43078;52.972;6.482;2023-03-14T02:04:51;14.70;;;2.80;;
57217;SDS011;43078;52.972;6.482;2023-03-14T02:07:22;17.50;;;3.45;;
57217;SDS011;43078;52.972;6.482;2023-03-14T02:10:12;17.70;;;3.10;;
57217;SDS011;43078;52.972;6.482;2023-03-14T02:12:39;16.60;;;2.90;;
57217;SDS011;43078;52.972;6.482;2023-03-14T02:15:05;15.98;;;3.13;;
57217;SDS011;43078;52.972;6.482;2023-03-14T02:17:33;15.82;;;2.78;;
57217;SDS011;43078;52.972;6.482;2023-03-14T02:20:08;17.27;;;2.72;;
57217;SDS011;43078;52.972;6.482;2023-03-14T02:22:54;13.43;;;2.60;;
57217;SDS011;43078;52.972;6.482;2023-03-14T02:28:13;16.00;;;2.90;;
57217;SDS011;43078;52.972;6.482;2023-03-14T02:30:40;12.75;;;2.35;;
57217;SDS011;43078;52.972;6.482;2023-03-14T02:33:13;13.73;;;2.42;;
57217;SDS011;43078;52.972;6.482;2023-03-14T02:35:43;12.07;;;2.58;;
57217;SDS011;43078;52.972;6.482;2023-03-14T02:38:35;14.23;;;2.60;;
57217;SDS011;43078;52.972;6.482;2023-03-14T02:41:06;10.35;;;2.17;;
57217;SDS011;43078;52.972;6.482;2023-03-14T02:43:32;14.30;;;2.30;;
57217;SDS011;43078;52.972;6.482;2023-03-14T02:45:58;17.30;;;2.30;;
57217;SDS011;43078;52.972;6.482;2023-03-14T02:50:53;12.43;;;2.50;;
57217;SDS011;43078;52.972;6.482;2023-03-14T02:53:22;11.55;;;2.13;;
57217;SDS011;43078;52.972;6.482;2023-03-14T02:55:54;10.43;;;2.38;;
57217;SDS011;43078;52.972;6.482;2023-03-14T02:58:20;13.63;;;2.42;;
57217;SDS011;43078;52.972;6.482;2023-03-14T03:00:46;12.68;;;2.35;;
57217;SDS011;43078;52.972;6.482;2023-03-14T03:03:12;16.55;;;3.03;;
57217;SDS011;43078;52.972;6.482;2023-03-14T03:05:38;14.68;;;3.22;;
57217;SDS011;43078;52.972;6.482;2023-03-14T03:08:04;16.33;;;3.30;;
57217;SDS011;43078;52.972;6.482;2023-03-14T03:10:30;18.80;;;3.67;;
57217;SDS011;43078;52.972;6.482;2023-03-14T03:12:56;17.27;;;3.40;;
57217;SDS011;43078;52.972;6.482;2023-03-14T03:15:22;17.98;;;3.55;;
57217;SDS011;43078;52.972;6.482;2023-03-14T03:17:52;21.38;;;4.00;;
57217;SDS011;43078;52.972;6.482;2023-03-14T03:20:18;17.60;;;3.72;;
57217;SDS011;43078;52.972;6.482;2023-03-14T03:22:44;17.02;;;3.55;;
57217;SDS011;43078;52.972;6.482;2023-03-14T03:25:09;19.02;;;3.70;;
57217;SDS011;43078;52.972;6.482;2023-03-14T03:27:36;18.70;;;3.80;;
57217;SDS011;43078;52.972;6.482;2023-03-14T03:30:04;15.55;;;3.45;;
57217;SDS011;43078;52.972;6.482;2023-03-14T03:32:30;17.85;;;4.05;;
57217;SDS011;43078;52.972;6.482;2023-03-14T03:34:56;18.33;;;3.70;;
57217;SDS011;43078;52.972;6.482;2023-03-14T03:37:22;18.95;;;4.07;;
57217;SDS011;43078;52.972;6.482;2023-03-14T03:39:49;16.92;;;3.75;;
57217;SDS011;43078;52.972;6.482;2023-03-14T03:42:16;18.48;;;3.80;;
57217;SDS011;43078;52.972;6.482;2023-03-14T03:44:42;19.48;;;3.47;;
57217;SDS011;43078;52.972;6.482;2023-03-14T03:47:08;16.98;;;3.83;;
57217;SDS011;43078;52.972;6.482;2023-03-14T03:49:34;15.85;;;4.28;;
57217;SDS011;43078;52.972;6.482;2023-03-14T03:52:00;18.45;;;4.07;;
57217;SDS011;43078;52.972;6.482;2023-03-14T03:54:28;16.88;;;4.05;;
57217;SDS011;43078;52.972;6.482;2023-03-14T03:56:54;16.08;;;4.47;;
57217;SDS011;43078;52.972;6.482;2023-03-14T03:59:20;16.45;;;4.10;;
57217;SDS011;43078;52.972;6.482;2023-03-14T04:01:46;15.98;;;3.85;;
57217;SDS011;43078;52.972;6.482;2023-03-14T04:04:12;13.90;;;4.03;;
57217;SDS011;43078;52.972;6.482;2023-03-14T04:06:38;15.95;;;4.63;;
57217;SDS011;43078;52.972;6.482;2023-03-14T04:09:04;14.80;;;4.45;;
57217;SDS011;43078;52.972;6.482;2023-03-14T04:11:30;24.10;;;5.25;;
57217;SDS011;43078;52.972;6.482;2023-03-14T04:13:55;19.80;;;4.90;;
57217;SDS011;43078;52.972;6.482;2023-03-14T04:16:23;19.73;;;5.10;;
57217;SDS011;43078;52.972;6.482;2023-03-14T04:18:50;13.60;;;4.78;;
57217;SDS011;43078;52.972;6.482;2023-03-14T04:21:16;17.35;;;4.70;;
57217;SDS011;43078;52.972;6.482;2023-03-14T04:23:42;15.73;;;4.78;;
57217;SDS011;43078;52.972;6.482;2023-03-14T04:26:10;15.80;;;4.60;;
57217;SDS011;43078;52.972;6.482;2023-03-14T04:28:39;13.45;;;3.90;;
57217;SDS011;43078;52.972;6.482;2023-03-14T04:31:18;15.82;;;4.30;;
57217;SDS011;43078;52.972;6.482;2023-03-14T04:33:45;15.20;;;3.67;;
57217;SDS011;43078;52.972;6.482;2023-03-14T04:36:16;16.75;;;4.53;;
57217;SDS011;43078;52.972;6.482;2023-03-14T04:38:41;15.85;;;4.30;;
57217;SDS011;43078;52.972;6.482;2023-03-14T04:41:07;15.27;;;3.60;;
57217;SDS011;43078;52.972;6.482;2023-03-14T04:43:33;14.45;;;3.63;;
57217;SDS011;43078;52.972;6.482;2023-03-14T04:45:59;9.95;;;3.50;;
57217;SDS011;43078;52.972;6.482;2023-03-14T04:48:25;12.75;;;3.70;;
57217;SDS011;43078;52.972;6.482;2023-03-14T04:50:51;12.38;;;3.40;;
57217;SDS011;43078;52.972;6.482;2023-03-14T04:53:17;13.40;;;3.60;;
57217;SDS011;43078;52.972;6.482;2023-03-14T04:55:47;12.15;;;3.45;;
57217;SDS011;43078;52.972;6.482;2023-03-14T04:58:17;12.85;;;3.65;;
57217;SDS011;43078;52.972;6.482;2023-03-14T05:00:44;13.63;;;3.75;;
57217;SDS011;43078;52.972;6.482;2023-03-14T05:03:10;13.70;;;3.80;;
57217;SDS011;43078;52.972;6.482;2023-03-14T05:05:35;12.65;;;4.15;;
57217;SDS011;43078;52.972;6.482;2023-03-14T05:08:01;9.75;;;3.67;;
57217;SDS011;43078;52.972;6.482;2023-03-14T05:10:27;13.82;;;3.78;;
57217;SDS011;43078;52.972;6.482;2023-03-14T05:12:53;15.43;;;4.10;;
57217;SDS011;43078;52.972;6.482;2023-03-14T05:15:18;14.05;;;3.70;;
57217;SDS011;43078;52.972;6.482;2023-03-14T05:17:44;15.88;;;3.58;;
57217;SDS011;43078;52.972;6.482;2023-03-14T05:20:11;16.73;;;4.03;;
57217;SDS011;43078;52.972;6.482;2023-03-14T05:22:40;15.40;;;4.22;;
57217;SDS011;43078;52.972;6.482;2023-03-14T05:25:06;12.20;;;3.67;;
57217;SDS011;43078;52.972;6.482;2023-03-14T05:27:32;13.93;;;4.15;;
57217;SDS011;43078;52.972;6.482;2023-03-14T05:29:58;15.15;;;3.92;;
57217;SDS011;43078;52.972;6.482;2023-03-14T05:32:24;16.65;;;4.40;;
57217;SDS011;43078;52.972;6.482;2023-03-14T05:34:50;16.92;;;4.22;;
57217;SDS011;43078;52.972;6.482;2023-03-14T05:37:18;14.88;;;4.10;;
57217;SDS011;43078;52.972;6.482;2023-03-14T05:39:51;18.58;;;4.47;;
57217;SDS011;43078;52.972;6.482;2023-03-14T05:45:02;13.55;;;4.38;;
57217;SDS011;43078;52.972;6.482;2023-03-14T05:47:33;14.80;;;4.72;;
57217;SDS011;43078;52.972;6.482;2023-03-14T05:50:24;14.18;;;4.43;;
57217;SDS011;43078;52.972;6.482;2023-03-14T05:52:50;16.80;;;4.93;;
57217;SDS011;43078;52.972;6.482;2023-03-14T05:55:37;14.50;;;4.65;;
57217;SDS011;43078;52.972;6.482;2023-03-14T05:58:42;14.60;;;4.43;;
57217;SDS011;43078;52.972;6.482;2023-03-14T06:05:38;13.80;;;4.57;;
57217;SDS011;43078;52.972;6.482;2023-03-14T06:07:45;10.95;;;4.28;;
57217;SDS011;43078;52.972;6.482;2023-03-14T06:10:11;13.07;;;4.35;;
57217;SDS011;43078;52.972;6.482;2023-03-14T06:12:37;14.75;;;4.60;;
57217;SDS011;43078;52.972;6.482;2023-03-14T06:15:02;13.35;;;4.13;;
57217;SDS011;43078;52.972;6.482;2023-03-14T06:17:29;11.13;;;3.80;;
57217;SDS011;43078;52.972;6.482;2023-03-14T06:19:54;11.93;;;3.50;;
57217;SDS011;43078;52.972;6.482;2023-03-14T06:22:20;11.07;;;4.40;;
57217;SDS011;43078;52.972;6.482;2023-03-14T06:24:47;9.40;;;3.80;;
57217;SDS011;43078;52.972;6.482;2023-03-14T06:27:12;11.20;;;4.50;;
57217;SDS011;43078;52.972;6.482;2023-03-14T06:29:38;14.50;;;4.70;;
57217;SDS011;43078;52.972;6.482;2023-03-14T06:32:04;14.48;;;5.15;;
57217;SDS011;43078;52.972;6.482;2023-03-14T06:34:30;14.43;;;4.57;;
57217;SDS011;43078;52.972;6.482;2023-03-14T06:36:56;13.98;;;4.80;;
57217;SDS011;43078;52.972;6.482;2023-03-14T06:39:21;12.27;;;4.70;;
57217;SDS011;43078;52.972;6.482;2023-03-14T06:41:47;12.68;;;4.20;;
57217;SDS011;43078;52.972;6.482;2023-03-14T06:44:12;14.90;;;4.32;;
57217;SDS011;43078;52.972;6.482;2023-03-14T06:46:38;9.85;;;4.30;;
57217;SDS011;43078;52.972;6.482;2023-03-14T06:49:04;10.57;;;3.78;;
57217;SDS011;43078;52.972;6.482;2023-03-14T06:51:30;10.30;;;3.63;;
57217;SDS011;43078;52.972;6.482;2023-03-14T06:53:59;11.32;;;3.63;;
57217;SDS011;43078;52.972;6.482;2023-03-14T06:56:24;12.20;;;3.45;;
57217;SDS011;43078;52.972;6.482;2023-03-14T06:58:50;12.18;;;3.78;;
57217;SDS011;43078;52.972;6.482;2023-03-14T07:01:28;11.60;;;3.45;;
57217;SDS011;43078;52.972;6.482;2023-03-14T07:03:55;8.05;;;2.00;;
57217;SDS011;43078;52.972;6.482;2023-03-14T07:06:21;8.52;;;1.50;;
57217;SDS011;43078;52.972;6.482;2023-03-14T07:08:47;8.55;;;1.73;;
57217;SDS011;43078;52.972;6.482;2023-03-14T07:11:13;6.50;;;2.13;;
57217;SDS011;43078;52.972;6.482;2023-03-14T07:13:38;8.27;;;1.77;;
57217;SDS011;43078;52.972;6.482;2023-03-14T07:16:05;9.57;;;1.55;;
57217;SDS011;43078;52.972;6.482;2023-03-14T07:18:31;6.85;;;1.17;;
57217;SDS011;43078;52.972;6.482;2023-03-14T07:20:57;10.13;;;2.20;;
57217;SDS011;43078;52.972;6.482;2023-03-14T07:23:23;9.80;;;1.73;;
57217;SDS011;43078;52.972;6.482;2023-03-14T07:25:49;8.52;;;1.67;;
57217;SDS011;43078;52.972;6.482;2023-03-14T07:28:16;7.82;;;1.27;;
57217;SDS011;43078;52.972;6.482;2023-03-14T07:30:41;11.63;;;1.90;;
57217;SDS011;43078;52.972;6.482;2023-03-14T07:33:07;7.93;;;0.98;;
57217;SDS011;43078;52.972;6.482;2023-03-14T07:35:33;6.95;;;1.23;;
57217;SDS011;43078;52.972;6.482;2023-03-14T07:37:58;6.30;;;1.08;;
57217;SDS011;43078;52.972;6.482;2023-03-14T07:40:24;7.40;;;0.93;;
57217;SDS011;43078;52.972;6.482;2023-03-14T07:42:50;8.27;;;0.98;;
57217;SDS011;43078;52.972;6.482;2023-03-14T07:45:16;5.97;;;1.00;;
57217;SDS011;43078;52.972;6.482;2023-03-14T07:47:42;7.40;;;0.82;;
57217;SDS011;43078;52.972;6.482;2023-03-14T07:50:07;6.40;;;0.88;;
57217;SDS011;43078;52.972;6.482;2023-03-14T07:52:34;5.20;;;0.73;;
57217;SDS011;43078;52.972;6.482;2023-03-14T07:54:59;3.72;;;0.70;;
57217;SDS011;43078;52.972;6.482;2023-03-14T07:57:25;3.53;;;0.70;;
57217;SDS011;43078;52.972;6.482;2023-03-14T07:59:51;7.25;;;0.90;;
57217;SDS011;43078;52.972;6.482;2023-03-14T08:02:16;3.30;;;0.73;;
57217;SDS011;43078;52.972;6.482;2023-03-14T08:04:45;4.55;;;0.60;;
57217;SDS011;43078;52.972;6.482;2023-03-14T08:07:10;4.93;;;0.80;;
57217;SDS011;43078;52.972;6.482;2023-03-14T08:09:36;6.10;;;0.82;;
57217;SDS011;43078;52.972;6.482;2023-03-14T08:12:02;4.80;;;0.68;;
57217;SDS011;43078;52.972;6.482;2023-03-14T08:14:27;6.35;;;1.00;;
57217;SDS011;43078;52.972;6.482;2023-03-14T08:16:54;3.65;;;0.63;;
57217;SDS011;43078;52.972;6.482;2023-03-14T08:19:20;5.80;;;0.95;;
57217;SDS011;43078;52.972;6.482;2023-03-14T08:21:46;5.93;;;0.60;;
57217;SDS011;43078;52.972;6.482;2023-03-14T08:24:11;6.05;;;1.08;;
57217;SDS011;43078;52.972;6.482;2023-03-14T08:26:37;6.05;;;0.95;;
57217;SDS011;43078;52.972;6.482;2023-03-14T08:29:03;4.38;;;0.68;;
57217;SDS011;43078;52.972;6.482;2023-03-14T08:31:29;9.15;;;0.80;;
57217;SDS011;43078;52.972;6.482;2023-03-14T08:33:57;6.60;;;0.90;;
57217;SDS011;43078;52.972;6.482;2023-03-14T08:36:24;7.85;;;1.13;;
57217;SDS011;43078;52.972;6.482;2023-03-14T08:38:50;5.60;;;0.95;;
57217;SDS011;43078;52.972;6.482;2023-03-14T08:41:16;8.98;;;1.15;;
57217;SDS011;43078;52.972;6.482;2023-03-14T08:43:41;5.22;;;1.00;;
57217;SDS011;43078;52.972;6.482;2023-03-14T08:46:07;6.82;;;0.73;;
57217;SDS011;43078;52.972;6.482;2023-03-14T08:48:32;5.43;;;0.75;;
57217;SDS011;43078;52.972;6.482;2023-03-14T08:51:11;6.03;;;0.90;;
57217;SDS011;43078;52.972;6.482;2023-03-14T08:53:39;9.65;;;1.13;;
57217;SDS011;43078;52.972;6.482;2023-03-14T08:56:05;8.98;;;1.48;;
57217;SDS011;43078;52.972;6.482;2023-03-14T08:58:32;8.30;;;1.23;;
57217;SDS011;43078;52.972;6.482;2023-03-14T09:00:58;7.32;;;1.10;;
57217;SDS011;43078;52.972;6.482;2023-03-14T09:03:24;8.68;;;1.17;;
57217;SDS011;43078;52.972;6.482;2023-03-14T09:05:50;6.00;;;1.10;;
57217;SDS011;43078;52.972;6.482;2023-03-14T09:08:16;10.77;;;1.58;;
57217;SDS011;43078;52.972;6.482;2023-03-14T09:10:42;7.70;;;1.20;;
57217;SDS011;43078;52.972;6.482;2023-03-14T09:13:08;8.82;;;1.13;;
57217;SDS011;43078;52.972;6.482;2023-03-14T09:15:33;8.73;;;1.40;;
57217;SDS011;43078;52.972;6.482;2023-03-14T09:17:59;11.48;;;1.60;;
57217;SDS011;43078;52.972;6.482;2023-03-14T09:20:24;12.00;;;1.83;;
57217;SDS011;43078;52.972;6.482;2023-03-14T09:22:50;10.32;;;1.55;;
57217;SDS011;43078;52.972;6.482;2023-03-14T09:25:16;14.43;;;1.60;;
57217;SDS011;43078;52.972;6.482;2023-03-14T09:27:41;13.80;;;2.60;;
57217;SDS011;43078;52.972;6.482;2023-03-14T09:30:07;16.92;;;2.22;;
57217;SDS011;43078;52.972;6.482;2023-03-14T09:32:33;16.45;;;2.38;;
57217;SDS011;43078;52.972;6.482;2023-03-14T09:34:59;14.00;;;2.15;;
57217;SDS011;43078;52.972;6.482;2023-03-14T09:37:25;16.08;;;2.60;;
57217;SDS011;43078;52.972;6.482;2023-03-14T09:39:51;14.30;;;2.78;;
57217;SDS011;43078;52.972;6.482;2023-03-14T09:42:17;14.93;;;1.98;;
57217;SDS011;43078;52.972;6.482;2023-03-14T09:44:53;16.77;;;2.38;;
57217;SDS011;43078;52.972;6.482;2023-03-14T09:47:21;22.45;;;3.47;;
57217;SDS011;43078;52.972;6.482;2023-03-14T09:49:48;19.38;;;2.60;;
57217;SDS011;43078;52.972;6.482;2023-03-14T09:52:15;18.00;;;2.65;;
57217;SDS011;43078;52.972;6.482;2023-03-14T09:54:43;19.95;;;2.85;;
57217;SDS011;43078;52.972;6.482;2023-03-14T09:57:16;18.65;;;2.80;;
57217;SDS011;43078;52.972;6.482;2023-03-14T09:59:44;22.50;;;2.88;;
57217;SDS011;43078;52.972;6.482;2023-03-14T10:02:17;18.75;;;2.65;;
57217;SDS011;43078;52.972;6.482;2023-03-14T10:04:46;21.45;;;3.60;;
57217;SDS011;43078;52.972;6.482;2023-03-14T10:07:14;21.48;;;3.25;;
57217;SDS011;43078;52.972;6.482;2023-03-14T10:09:43;20.00;;;2.92;;
57217;SDS011;43078;52.972;6.482;2023-03-14T10:12:09;14.52;;;2.70;;
57217;SDS011;43078;52.972;6.482;2023-03-14T10:14:36;18.05;;;3.20;;
57217;SDS011;43078;52.972;6.482;2023-03-14T10:17:11;22.52;;;3.10;;
57217;SDS011;43078;52.972;6.482;2023-03-14T10:19:50;20.20;;;3.10;;
57217;SDS011;43078;52.972;6.482;2023-03-14T10:22:20;20.48;;;3.03;;
57217;SDS011;43078;52.972;6.482;2023-03-14T10:24:52;19.48;;;2.97;;
57217;SDS011;43078;52.972;6.482;2023-03-14T10:27:22;26.05;;;3.35;;
57217;SDS011;43078;52.972;6.482;2023-03-14T10:29:54;20.73;;;3.20;;
57217;SDS011;43078;52.972;6.482;2023-03-14T10:32:21;20.55;;;2.97;;
57217;SDS011;43078;52.972;6.482;2023-03-14T10:37:47;18.38;;;2.88;;
57217;SDS011;43078;52.972;6.482;2023-03-14T10:40:31;18.40;;;2.65;;
57217;SDS011;43078;52.972;6.482;2023-03-14T10:43:04;17.90;;;2.63;;
57217;SDS011;43078;52.972;6.482;2023-03-14T10:45:33;17.67;;;2.78;;
57217;SDS011;43078;52.972;6.482;2023-03-14T10:48:06;22.42;;;2.97;;
57217;SDS011;43078;52.972;6.482;2023-03-14T10:56:11;15.95;;;2.83;;
57217;SDS011;43078;52.972;6.482;2023-03-14T10:58:45;17.77;;;2.65;;
57217;SDS011;43078;52.972;6.482;2023-03-14T11:04:01;14.70;;;2.42;;
57217;SDS011;43078;52.972;6.482;2023-03-14T11:07:10;14.40;;;2.17;;
57217;SDS011;43078;52.972;6.482;2023-03-14T11:10:15;20.90;;;2.92;;
57217;SDS011;43078;52.972;6.482;2023-03-14T11:18:21;15.02;;;2.25;;
57217;SDS011;43078;52.972;6.482;2023-03-14T11:21:13;16.00;;;2.15;;
57217;SDS011;43078;52.972;6.482;2023-03-14T11:26:38;17.75;;;2.00;;
57217;SDS011;43078;52.972;6.482;2023-03-14T11:29:20;14.35;;;2.05;;
57217;SDS011;43078;52.972;6.482;2023-03-14T11:31:59;12.05;;;1.75;;
57217;SDS011;43078;52.972;6.482;2023-03-14T11:34:32;14.93;;;2.40;;
57217;SDS011;43078;52.972;6.482;2023-03-14T11:40:00;14.55;;;2.05;;
57217;SDS011;43078;52.972;6.482;2023-03-14T11:42:38;17.58;;;2.28;;
57217;SDS011;43078;52.972;6.482;2023-03-14T11:45:15;12.60;;;2.00;;
57217;SDS011;43078;52.972;6.482;2023-03-14T11:47:43;15.07;;;2.42;;
57217;SDS011;43078;52.972;6.482;2023-03-14T11:50:18;11.68;;;1.80;;
57217;SDS011;43078;52.972;6.482;2023-03-14T11:55:49;13.02;;;1.92;;
57217;SDS011;43078;52.972;6.482;2023-03-14T12:00:41;12.63;;;1.38;;
57217;SDS011;43078;52.972;6.482;2023-03-14T12:05:52;11.80;;;1.98;;
57217;SDS011;43078;52.972;6.482;2023-03-14T12:08:39;10.60;;;1.70;;
57217;SDS011;43078;52.972;6.482;2023-03-14T12:13:49;9.18;;;1.20;;
57217;SDS011;43078;52.972;6.482;2023-03-14T12:18:49;8.77;;;1.45;;
57217;SDS011;43078;52.972;6.482;2023-03-14T12:21:18;10.45;;;1.65;;
57217;SDS011;43078;52.972;6.482;2023-03-14T12:23:44;13.27;;;1.77;;
57217;SDS011;43078;52.972;6.482;2023-03-14T12:26:17;9.65;;;1.45;;
57217;SDS011;43078;52.972;6.482;2023-03-14T12:29:10;10.32;;;1.60;;
57217;SDS011;43078;52.972;6.482;2023-03-14T12:31:47;7.97;;;1.35;;
57217;SDS011;43078;52.972;6.482;2023-03-14T12:34:26;6.47;;;1.30;;
57217;SDS011;43078;52.972;6.482;2023-03-14T12:36:55;8.40;;;1.65;;
57217;SDS011;43078;52.972;6.482;2023-03-14T12:44:41;9.27;;;1.55;;
57217;SDS011;43078;52.972;6.482;2023-03-14T12:49:43;7.85;;;1.30;;
57217;SDS011;43078;52.972;6.482;2023-03-14T12:52:14;10.23;;;1.67;;
57217;SDS011;43078;52.972;6.482;2023-03-14T12:59:58;6.95;;;1.30;;
57217;SDS011;43078;52.972;6.482;2023-03-14T13:02:42;8.65;;;1.35;;
57217;SDS011;43078;52.972;6.482;2023-03-14T13:15:23;11.20;;;2.00;;
57217;SDS011;43078;52.972;6.482;2023-03-14T13:18:09;10.52;;;1.63;;
57217;SDS011;43078;52.972;6.482;2023-03-14T13:23:27;7.88;;;1.67;;
57217;SDS011;43078;52.972;6.482;2023-03-14T13:25:54;9.07;;;1.40;;
57217;SDS011;43078;52.972;6.482;2023-03-14T13:28:21;8.23;;;1.42;;
57217;SDS011;43078;52.972;6.482;2023-03-14T13:30:48;7.95;;;1.52;;
57217;SDS011;43078;52.972;6.482;2023-03-14T13:33:20;7.63;;;1.58;;
57217;SDS011;43078;52.972;6.482;2023-03-14T13:35:59;9.20;;;1.67;;
57217;SDS011;43078;52.972;6.482;2023-03-14T13:38:29;7.00;;;1.75;;
57217;SDS011;43078;52.972;6.482;2023-03-14T13:40:57;12.43;;;1.52;;
57217;SDS011;43078;52.972;6.482;2023-03-14T13:43:27;8.40;;;1.40;;
57217;SDS011;43078;52.972;6.482;2023-03-14T13:48:20;8.15;;;1.38;;
57217;SDS011;43078;52.972;6.482;2023-03-14T13:50:55;9.05;;;1.90;;
57217;SDS011;43078;52.972;6.482;2023-03-14T13:53:26;7.32;;;1.52;;
57217;SDS011;43078;52.972;6.482;2023-03-14T13:55:52;10.45;;;1.95;;
57217;SDS011;43078;52.972;6.482;2023-03-14T13:58:22;8.23;;;1.80;;
57217;SDS011;43078;52.972;6.482;2023-03-14T14:00:57;11.45;;;1.80;;
57217;SDS011;43078;52.972;6.482;2023-03-14T14:03:36;11.05;;;1.65;;
57217;SDS011;43078;52.972;6.482;2023-03-14T14:06:05;11.45;;;2.00;;
57217;SDS011;43078;52.972;6.482;2023-03-14T14:08:48;9.82;;;1.90;;
57217;SDS011;43078;52.972;6.482;2023-03-14T14:13:59;5.97;;;1.30;;
57217;SDS011;43078;52.972;6.482;2023-03-14T14:16:26;10.63;;;1.60;;
57217;SDS011;43078;52.972;6.482;2023-03-14T14:18:54;9.57;;;1.92;;
57217;SDS011;43078;52.972;6.482;2023-03-14T14:21:22;10.60;;;1.90;;
57217;SDS011;43078;52.972;6.482;2023-03-14T14:23:48;9.55;;;1.75;;
57217;SDS011;43078;52.972;6.482;2023-03-14T14:26:18;8.40;;;1.23;;
57217;SDS011;43078;52.972;6.482;2023-03-14T14:28:44;9.55;;;1.30;;
57217;SDS011;43078;52.972;6.482;2023-03-14T14:33:44;8.63;;;1.70;;
57217;SDS011;43078;52.972;6.482;2023-03-14T14:38:49;14.82;;;1.65;;
57217;SDS011;43078;52.972;6.482;2023-03-14T14:41:15;13.30;;;1.98;;
57217;SDS011;43078;52.972;6.482;2023-03-14T14:43:41;11.95;;;2.08;;
57217;SDS011;43078;52.972;6.482;2023-03-14T14:46:07;11.00;;;1.85;;
57217;SDS011;43078;52.972;6.482;2023-03-14T14:48:38;10.45;;;1.48;;
57217;SDS011;43078;52.972;6.482;2023-03-14T14:51:05;11.00;;;1.88;;
57217;SDS011;43078;52.972;6.482;2023-03-14T14:53:36;12.73;;;2.28;;
57217;SDS011;43078;52.972;6.482;2023-03-14T14:56:20;9.52;;;1.73;;
57217;SDS011;43078;52.972;6.482;2023-03-14T14:58:55;8.10;;;1.55;;
57217;SDS011;43078;52.972;6.482;2023-03-14T15:01:24;11.35;;;1.88;;
57217;SDS011;43078;52.972;6.482;2023-03-14T15:03:55;8.13;;;1.70;;
57217;SDS011;43078;52.972;6.482;2023-03-14T15:06:21;10.40;;;1.65;;
57217;SDS011;43078;52.972;6.482;2023-03-14T15:08:48;9.98;;;1.80;;
57217;SDS011;43078;52.972;6.482;2023-03-14T15:11:18;9.60;;;1.33;;
57217;SDS011;43078;52.972;6.482;2023-03-14T15:13:47;7.57;;;1.33;;
57217;SDS011;43078;52.972;6.482;2023-03-14T15:16:18;9.68;;;1.48;;
57217;SDS011;43078;52.972;6.482;2023-03-14T15:18:55;10.15;;;1.70;;
57217;SDS011;43078;52.972;6.482;2023-03-14T15:21:23;8.90;;;1.33;;
57217;SDS011;43078;52.972;6.482;2023-03-14T15:23:50;12.32;;;1.60;;
57217;SDS011;43078;52.972;6.482;2023-03-14T15:26:20;10.63;;;1.60;;
57217;SDS011;43078;52.972;6.482;2023-03-14T15:28:48;9.70;;;1.48;;
57217;SDS011;43078;52.972;6.482;2023-03-14T15:31:15;9.32;;;1.30;;
57217;SDS011;43078;52.972;6.482;2023-03-14T15:33:46;10.13;;;1.75;;
57217;SDS011;43078;52.972;6.482;2023-03-14T15:36:29;10.45;;;1.60;;
57217;SDS011;43078;52.972;6.482;2023-03-14T15:39:09;12.23;;;2.05;;
57217;SDS011;43078;52.972;6.482;2023-03-14T15:41:36;10.32;;;1.73;;
57217;SDS011;43078;52.972;6.482;2023-03-14T15:44:02;11.48;;;1.80;;
57217;SDS011;43078;52.972;6.482;2023-03-14T15:46:28;8.60;;;1.88;;
57217;SDS011;43078;52.972;6.482;2023-03-14T15:48:54;13.77;;;2.15;;
57217;SDS011;43078;52.972;6.482;2023-03-14T15:51:20;10.73;;;1.55;;
57217;SDS011;43078;52.972;6.482;2023-03-14T15:53:45;11.23;;;1.80;;
57217;SDS011;43078;52.972;6.482;2023-03-14T15:56:13;13.70;;;1.80;;
57217;SDS011;43078;52.972;6.482;2023-03-14T15:58:40;9.45;;;1.85;;
57217;SDS011;43078;52.972;6.482;2023-03-14T16:01:07;8.82;;;1.48;;
57217;SDS011;43078;52.972;6.482;2023-03-14T16:03:36;12.38;;;1.73;;
57217;SDS011;43078;52.972;6.482;2023-03-14T16:06:02;13.88;;;2.20;;
57217;SDS011;43078;52.972;6.482;2023-03-14T16:08:28;14.02;;;2.08;;
57217;SDS011;43078;52.972;6.482;2023-03-14T16:10:55;6.32;;;1.63;;
57217;SDS011;43078;52.972;6.482;2023-03-14T16:13:22;12.85;;;1.77;;
57217;SDS011;43078;52.972;6.482;2023-03-14T16:15:55;11.60;;;2.00;;